createdAt,value
2018-03-25T10:20:22.881Z,100608.68
2018-03-25T10:30:52.649Z,100606.28
2018-03-25T10:35:53.622Z,100616.77
2018-03-25T10:40:54.602Z,100616.83
2018-03-25T10:45:55.613Z,100615.25
2018-03-25T10:50:56.566Z,100619.00
2018-03-25T10:55:57.548Z,100615.63
2018-03-25T11:00:58.536Z,100623.00
2018-03-25T11:05:59.877Z,100622.78
2018-03-25T11:11:00.868Z,100621.95
2018-03-25T11:16:01.817Z,100625.86
2018-03-25T11:21:02.768Z,100622.28
2018-03-25T11:26:03.992Z,100628.27
2018-03-25T11:31:04.985Z,100631.16
2018-03-25T11:47:11.028Z,100646.61
2018-03-25T11:52:12.040Z,100631.85
2018-03-25T11:57:13.032Z,100641.50
2018-03-25T12:02:13.999Z,100651.28
2018-03-25T12:07:15.002Z,100657.50
2018-03-25T12:12:15.983Z,100655.27
2018-03-25T12:22:51.430Z,100644.80
2018-03-25T12:27:52.446Z,100639.41
2018-03-25T12:32:53.397Z,100643.55
2018-03-25T12:37:55.641Z,100642.64
2018-03-25T12:42:56.639Z,100641.27
2018-03-25T12:47:57.581Z,100639.15
2018-03-25T12:52:58.525Z,100637.95
2018-03-25T12:57:59.482Z,100638.73
2018-03-25T13:03:00.483Z,100641.29
2018-03-25T13:08:01.483Z,100629.67
2018-03-25T13:13:02.467Z,100632.30
2018-03-25T13:18:03.458Z,100632.53
2018-03-25T13:23:04.457Z,100627.39
2018-03-25T13:28:05.904Z,100634.61
2018-03-25T13:33:06.844Z,100633.95
2018-03-25T13:43:42.765Z,100630.93
2018-03-25T13:48:43.749Z,100629.09
2018-03-25T13:53:44.712Z,100631.41
2018-03-25T13:58:45.684Z,100627.34
2018-03-25T14:03:46.649Z,100630.05
2018-03-25T14:08:47.933Z,100618.65
2018-03-25T14:13:49.200Z,100622.26
2018-03-25T14:18:50.191Z,100636.16
2018-03-25T14:23:51.161Z,100613.55
2018-03-25T14:28:52.198Z,100617.55
2018-03-25T14:33:53.159Z,100614.79
2018-03-25T14:38:54.118Z,100616.73
2018-03-25T14:43:55.081Z,100615.70
2018-03-25T14:48:56.044Z,100615.03
2018-03-25T14:53:57.020Z,100618.06
2018-03-25T14:58:57.968Z,100621.23
2018-03-25T15:03:58.912Z,100611.72
2018-03-25T15:09:00.227Z,100615.36
2018-03-25T15:14:01.518Z,100616.48
2018-03-25T15:19:02.512Z,100618.09
2018-03-25T15:24:03.530Z,100606.91
2018-03-25T15:29:04.521Z,100605.59
2018-03-25T15:34:05.958Z,100610.91
2018-03-25T15:39:06.912Z,100607.25
2018-03-25T15:44:07.923Z,100605.93
2018-03-25T15:49:08.925Z,100604.97
2018-03-25T15:54:09.882Z,100614.96
2018-03-25T15:59:10.883Z,100615.72
2018-03-25T16:04:11.888Z,100615.48
2018-03-25T16:09:12.872Z,100618.12
2018-03-25T16:14:13.834Z,100617.91
2018-03-25T16:19:15.077Z,100620.86
2018-03-25T16:24:16.038Z,100620.86
2018-03-25T16:29:17.085Z,100626.22
2018-03-25T16:34:18.113Z,100620.84
2018-03-25T16:39:19.135Z,100628.66
2018-03-25T16:44:20.125Z,100629.56
2018-03-25T16:49:21.103Z,100644.22
2018-03-25T16:54:22.078Z,100640.64
2018-03-25T16:59:23.093Z,100637.91
2018-03-25T17:04:24.071Z,100639.42
2018-03-25T17:09:25.062Z,100647.80
2018-03-25T17:14:26.068Z,100646.75
2018-03-25T17:19:27.033Z,100648.16
2018-03-25T17:24:27.984Z,100655.30
2018-03-25T17:29:29.022Z,100659.97
2018-03-25T17:34:30.003Z,100661.67
2018-03-25T17:39:30.980Z,100663.98
2018-03-25T17:44:32.011Z,100662.11
2018-03-25T18:00:33.938Z,100672.49
2018-03-25T18:05:34.909Z,100680.84
2018-03-25T18:10:35.914Z,100689.22
2018-03-25T18:15:36.899Z,100690.36
2018-03-25T18:20:37.874Z,100695.08
2018-03-25T18:25:38.813Z,100704.46
2018-03-25T18:30:39.835Z,100709.23
2018-03-25T18:35:40.811Z,100721.06
2018-03-25T18:40:41.785Z,100714.11
2018-03-25T18:45:42.757Z,100717.48
2018-03-25T18:50:43.777Z,100708.36
2018-03-25T18:55:44.809Z,100716.44
2018-03-25T19:00:45.842Z,100724.48
2018-03-25T19:05:46.865Z,100717.42
2018-03-25T19:10:47.869Z,100725.84
2018-03-25T19:15:48.924Z,100721.16
2018-03-25T19:20:50.032Z,100721.81
2018-03-25T19:25:51.126Z,100732.70
2018-03-25T19:30:53.092Z,100734.34
2018-03-25T19:35:54.089Z,100735.66
2018-03-25T19:40:55.080Z,100735.33
2018-03-25T19:45:56.058Z,100738.11
2018-03-25T19:50:57.045Z,100740.80
2018-03-25T19:55:58.043Z,100731.09
2018-03-25T20:00:59.103Z,100738.94
2018-03-25T20:06:00.108Z,100731.99
2018-03-25T20:11:01.137Z,100729.53
2018-03-25T20:16:02.096Z,100735.42
2018-03-25T20:21:03.113Z,100739.92
2018-03-25T20:26:04.104Z,100745.48
2018-03-25T20:31:05.073Z,100738.98
2018-03-25T20:36:06.449Z,100748.72
2018-03-25T22:04:49.116Z,100766.26
2018-03-25T22:09:50.100Z,100761.17
2018-03-25T22:14:51.064Z,100769.16
2018-03-25T22:19:52.029Z,100780.34
2018-03-25T22:24:52.961Z,100778.51
2018-03-25T22:29:54.377Z,100778.12
2018-03-25T22:34:55.304Z,100788.11
2018-03-25T22:39:57.228Z,100786.26
2018-03-25T22:44:58.184Z,100789.52
2018-03-25T22:49:59.232Z,100780.29
2018-03-25T22:55:00.477Z,100792.52
2018-03-25T23:00:01.765Z,100789.47
2018-03-25T23:05:03.248Z,100794.91
2018-03-25T23:10:04.264Z,100789.33
2018-03-25T23:15:05.256Z,100791.09
2018-03-25T23:20:06.432Z,100794.34
2018-03-25T23:25:07.691Z,100790.11
2018-03-25T23:30:08.939Z,100790.31
2018-03-25T23:35:10.206Z,100792.48
2018-03-25T23:40:11.135Z,100798.11
2018-03-25T23:45:12.078Z,100801.94
2018-03-25T23:50:13.026Z,100804.56
2018-03-25T23:55:13.949Z,100806.91
